Time;durP1;ratioP1;P1;durP2;ratioP2;P2;SDS_P1;SDS_P2;PMS_P1;PMS_P2;Temp;Humidity;BMP_temperature;BMP_pressure;BME280_temperature;BME280_humidity;BME280_pressure;Samples;Min_cycle;Max_cycle;Signal;HPM_P1;HPM_P2
2022/11/06 00:02:19;;;;;;;;;;;17.00;91.40;;;;;;5076183;28;19990;-41
2022/11/06 00:04:45;;;;;;;;;;;17.00;91.40;;;;;;5075135;28;20296;-43
2022/11/06 00:07:10;;;;;;;;;;;17.00;91.40;;;;;;5058096;28;20026;-42
2022/11/06 00:09:36;;;;;;;;;;;17.00;91.40;;;;;;5075063;28;19919;-41
2022/11/06 00:12:01;;;;;;;;;;;17.00;91.50;;;;;;5076034;28;20093;-44
2022/11/06 00:14:26;;;;;;;;;;;17.00;91.50;;;;;;5075917;28;19904;-42
2022/11/06 00:16:52;;;;;;;;;;;17.00;91.50;;;;;;5075762;28;19915;-43
2022/11/06 00:19:17;;;;;;;;;;;16.90;91.50;;;;;;5075917;28;20354;-41
2022/11/06 00:21:43;;;;;;;;;;;16.90;91.50;;;;;;5074831;28;19983;-43
2022/11/06 00:24:10;;;;;;;;;;;16.90;91.60;;;;;;5076026;28;19957;-43
2022/11/06 00:26:36;;;;;;;;;;;16.90;91.60;;;;;;5075936;28;20247;-44
2022/11/06 00:29:02;;;;;;;;;;;16.90;91.60;;;;;;5075910;28;19912;-41
2022/11/06 00:31:28;;;;;;;;;;;16.90;91.60;;;;;;5075922;28;19987;-41
2022/11/06 00:33:55;;;;;;;;;;;16.80;91.60;;;;;;5075602;28;19995;-41
2022/11/06 00:36:21;;;;;;;;;;;16.80;91.60;;;;;;5076235;28;19957;-43
2022/11/06 00:38:50;;;;;;;;;;;16.80;91.70;;;;;;5075856;28;19947;-41
2022/11/06 00:41:15;;;;;;;;;;;16.80;91.70;;;;;;5075863;28;19911;-41
2022/11/06 00:43:41;;;;;;;;;;;16.80;91.80;;;;;;5075345;28;19905;-42
2022/11/06 00:46:08;;;;;;;;;;;16.70;91.80;;;;;;5075377;28;19987;-42
2022/11/06 00:48:34;;;;;;;;;;;16.70;92.10;;;;;;5074319;28;19904;-42
2022/11/06 00:51:08;;;;;;;;;;;16.70;91.80;;;;;;5075287;28;20245;-41
2022/11/06 00:53:34;;;;;;;;;;;16.70;91.90;;;;;;5075282;28;19986;-43
2022/11/06 00:56:06;;;;;;;;;;;16.60;92.20;;;;;;5075288;28;19935;-43
2022/11/06 00:58:31;;;;;;;;;;;16.70;92.00;;;;;;5075084;28;19905;-42
2022/11/06 01:01:04;;;;;;;;;;;16.60;92.00;;;;;;5075462;28;19927;-42
2022/11/06 01:03:29;;;;;;;;;;;16.60;92.00;;;;;;5075365;28;19904;-42
2022/11/06 01:06:01;;;;;;;;;;;16.50;92.10;;;;;;5075280;28;19910;-44
2022/11/06 01:08:27;;;;;;;;;;;16.50;92.10;;;;;;5075283;28;19916;-43
2022/11/06 01:10:52;;;;;;;;;;;16.50;92.10;;;;;;5074830;28;19912;-44
2022/11/06 01:13:18;;;;;;;;;;;16.50;92.10;;;;;;5075275;28;19948;-42
2022/11/06 01:15:43;;;;;;;;;;;16.40;92.20;;;;;;5075166;28;20389;-44
2022/11/06 01:18:09;;;;;;;;;;;16.40;92.20;;;;;;5074679;28;19951;-42
2022/11/06 01:20:36;;;;;;;;;;;16.40;92.30;;;;;;5075207;28;19904;-44
2022/11/06 01:23:01;;;;;;;;;;;16.30;92.30;;;;;;5074684;28;19947;-42
2022/11/06 01:25:27;;;;;;;;;;;16.30;92.30;;;;;;5074859;28;19944;-41
2022/11/06 01:27:52;;;;;;;;;;;16.30;92.40;;;;;;5074801;28;19904;-45
2022/11/06 01:30:18;;;;;;;;;;;16.30;92.40;;;;;;5074698;28;19912;-42
2022/11/06 01:32:43;;;;;;;;;;;16.20;92.50;;;;;;5074523;28;20244;-44
2022/11/06 01:35:09;;;;;;;;;;;16.20;92.50;;;;;;5056745;28;19905;-43
2022/11/06 01:37:34;;;;;;;;;;;16.20;92.50;;;;;;5074435;28;20003;-42
2022/11/06 01:39:59;;;;;;;;;;;16.20;92.60;;;;;;5074327;28;19905;-42
2022/11/06 01:42:25;;;;;;;;;;;16.20;92.60;;;;;;5074591;28;20347;-42
2022/11/06 01:45:04;;;;;;;;;;;16.10;92.60;;;;;;5074005;28;19904;-41
2022/11/06 01:47:29;;;;;;;;;;;16.10;92.70;;;;;;5074544;28;19904;-43
2022/11/06 01:49:57;;;;;;;;;;;16.10;92.70;;;;;;5074406;28;19990;-42
2022/11/06 01:52:24;;;;;;;;;;;16.10;92.70;;;;;;5074864;28;19965;-43
2022/11/06 01:54:52;;;;;;;;;;;16.10;92.70;;;;;;5074181;28;19904;-42
2022/11/06 01:57:18;;;;;;;;;;;16.10;92.70;;;;;;5074447;28;19912;-42
2022/11/06 01:59:44;;;;;;;;;;;16.00;92.70;;;;;;5073059;28;19905;-43
2022/11/06 02:02:10;;;;;;;;;;;16.10;92.80;;;;;;5074323;28;19904;-43
2022/11/06 02:04:37;;;;;;;;;;;16.10;92.80;;;;;;5074319;28;20243;-42
2022/11/06 02:07:04;;;;;;;;;;;16.00;92.80;;;;;;5089549;28;19953;-42
2022/11/06 02:09:31;;;;;;;;;;;16.00;92.80;;;;;;5074265;28;19912;-43
2022/11/06 02:12:01;;;;;;;;;;;16.00;92.80;;;;;;5074109;28;19911;-42
2022/11/06 02:14:47;;;;;;;;;;;16.00;92.80;;;;;;5074013;28;20207;-43
2022/11/06 02:17:48;;;;;;;;;;;16.00;92.80;;;;;;5074281;28;19943;-45
2022/11/06 02:20:13;;;;;;;;;;;16.00;92.90;;;;;;5012013;28;19905;-43
2022/11/06 02:22:44;;;;;;;;;;;16.00;92.90;;;;;;5061022;28;19911;-42
2022/11/06 02:25:21;;;;;;;;;;;16.00;92.90;;;;;;5074101;28;19904;-44
2022/11/06 02:27:50;;;;;;;;;;;16.00;92.90;;;;;;5073832;28;20001;-42
2022/11/06 02:30:17;;;;;;;;;;;16.00;92.90;;;;;;5074061;28;19912;-43
2022/11/06 02:32:45;;;;;;;;;;;16.00;92.90;;;;;;5073214;28;19909;-44
2022/11/06 02:35:31;;;;;;;;;;;16.00;92.90;;;;;;5074160;28;19904;-42
2022/11/06 02:37:59;;;;;;;;;;;16.00;92.90;;;;;;5073708;28;19908;-42
2022/11/06 02:40:27;;;;;;;;;;;15.90;92.90;;;;;;5074028;28;19904;-44
2022/11/06 02:42:54;;;;;;;;;;;15.90;93.00;;;;;;5073856;28;19904;-42
2022/11/06 02:45:21;;;;;;;;;;;15.90;93.00;;;;;;5073963;28;20248;-42
2022/11/06 02:47:48;;;;;;;;;;;15.90;93.00;;;;;;5073623;28;19904;-43
2022/11/06 02:50:17;;;;;;;;;;;15.90;93.00;;;;;;5073664;28;19912;-44
2022/11/06 02:52:51;;;;;;;;;;;15.90;93.00;;;;;;5073625;28;19908;-42
2022/11/06 02:55:24;;;;;;;;;;;15.90;93.00;;;;;;5073672;28;20362;-42
2022/11/06 02:57:53;;;;;;;;;;;15.90;93.00;;;;;;5072567;28;20343;-43
2022/11/06 03:00:19;;;;;;;;;;;15.90;93.20;;;;;;5073728;28;19904;-41
2022/11/06 03:02:51;;;;;;;;;;;15.90;93.00;;;;;;5073367;28;19911;-44
2022/11/06 03:05:20;;;;;;;;;;;15.90;93.00;;;;;;5073283;28;19905;-44
2022/11/06 03:07:48;;;;;;;;;;;15.90;93.00;;;;;;5073315;28;20465;-42
2022/11/06 03:10:14;;;;;;;;;;;15.90;93.00;;;;;;5073579;28;20350;-43
2022/11/06 03:12:53;;;;;;;;;;;15.90;93.00;;;;;;5073683;28;19905;-43
2022/11/06 03:15:26;;;;;;;;;;;15.80;93.00;;;;;;5073966;28;20461;-43
2022/11/06 03:18:10;;;;;;;;;;;15.80;93.00;;;;;;5073322;28;19971;-44
2022/11/06 03:20:41;;;;;;;;;;;15.80;93.00;;;;;;5073587;28;19927;-41
2022/11/06 03:23:17;;;;;;;;;;;15.80;93.00;;;;;;5073162;28;19912;-41
2022/11/06 03:25:53;;;;;;;;;;;15.80;93.00;;;;;;5073130;28;19914;-41
2022/11/06 03:28:30;;;;;;;;;;;15.80;92.90;;;;;;5073394;28;19912;-41
2022/11/06 03:30:58;;;;;;;;;;;15.80;93.00;;;;;;5073027;28;20003;-41
2022/11/06 03:33:30;;;;;;;;;;;15.80;93.00;;;;;;5073463;28;19993;-43
2022/11/06 03:36:00;;;;;;;;;;;15.80;93.00;;;;;;5072327;28;19911;-42
2022/11/06 03:38:55;;;;;;;;;;;15.80;92.90;;;;;;5073499;28;19908;-43
2022/11/06 03:41:32;;;;;;;;;;;15.80;92.90;;;;;;5060001;28;19904;-43
2022/11/06 03:43:59;;;;;;;;;;;15.80;92.90;;;;;;5072929;28;19957;-42
2022/11/06 03:46:26;;;;;;;;;;;15.80;93.00;;;;;;5077038;28;19904;-42
2022/11/06 03:48:57;;;;;;;;;;;15.80;93.00;;;;;;5076486;28;19918;-42
2022/11/06 03:51:31;;;;;;;;;;;15.80;93.00;;;;;;5058982;28;20009;-43
2022/11/06 03:53:59;;;;;;;;;;;15.80;93.00;;;;;;5076569;28;19904;-42
2022/11/06 03:56:31;;;;;;;;;;;15.80;93.00;;;;;;5077063;28;19911;-42
2022/11/06 03:58:57;;;;;;;;;;;15.70;93.00;;;;;;5076662;28;20228;-43
2022/11/06 04:01:26;;;;;;;;;;;15.70;93.10;;;;;;5076742;28;19914;-42
2022/11/06 04:03:58;;;;;;;;;;;15.70;93.30;;;;;;5076563;28;19915;-42
2022/11/06 04:06:36;;;;;;;;;;;15.70;93.10;;;;;;5076489;28;20339;-42
2022/11/06 04:14:33;;;;;;;;;;;15.70;93.10;;;;;;5076214;28;19912;-41
2022/11/06 04:17:03;;;;;;;;;;;15.70;93.10;;;;;;5076044;28;19928;-42
2022/11/06 04:19:29;;;;;;;;;;;15.70;93.00;;;;;;5076286;28;19927;-42
2022/11/06 04:21:54;;;;;;;;;;;15.70;93.00;;;;;;5074937;28;20406;-42
2022/11/06 04:27:51;;;;;;;;;;;15.70;93.00;;;;;;5014139;28;19928;-42
2022/11/06 04:30:17;;;;;;;;;;;15.70;93.10;;;;;;5074551;28;19962;-43
2022/11/06 04:33:04;;;;;;;;;;;15.70;93.10;;;;;;5075742;28;19909;-42
2022/11/06 04:35:34;;;;;;;;;;;15.70;93.10;;;;;;5076328;28;19912;-41
2022/11/06 04:38:06;;;;;;;;;;;15.70;93.10;;;;;;5075691;28;20373;-43
2022/11/06 04:40:50;;;;;;;;;;;15.70;93.10;;;;;;5076226;28;19957;-41
2022/11/06 04:43:29;;;;;;;;;;;15.70;93.10;;;;;;5075762;28;19905;-43
2022/11/06 04:45:57;;;;;;;;;;;15.70;93.10;;;;;;5075395;28;19904;-42
2022/11/06 04:48:23;;;;;;;;;;;15.60;93.10;;;;;;5075730;28;20000;-42
2022/11/06 04:50:54;;;;;;;;;;;15.60;93.10;;;;;;5057776;28;19912;-41
2022/11/06 04:53:20;;;;;;;;;;;15.60;93.10;;;;;;5075578;28;19957;-42
2022/11/06 04:55:47;;;;;;;;;;;15.60;93.10;;;;;;5075090;28;19905;-43
2022/11/06 04:58:13;;;;;;;;;;;15.60;93.10;;;;;;5075557;28;19909;-41
2022/11/06 05:00:39;;;;;;;;;;;15.60;93.20;;;;;;5075425;28;19904;-42
2022/11/06 05:03:05;;;;;;;;;;;15.60;93.20;;;;;;5075132;28;19927;-43
2022/11/06 05:05:31;;;;;;;;;;;15.60;93.20;;;;;;5075321;28;19905;-42
2022/11/06 05:07:56;;;;;;;;;;;15.60;93.20;;;;;;5075411;28;19995;-42
2022/11/06 05:10:22;;;;;;;;;;;15.60;93.10;;;;;;5074960;28;19920;-42
2022/11/06 05:12:47;;;;;;;;;;;15.60;93.10;;;;;;5075046;28;20000;-42
2022/11/06 05:15:13;;;;;;;;;;;15.60;93.20;;;;;;5074907;28;19905;-42
2022/11/06 05:17:38;;;;;;;;;;;15.60;93.20;;;;;;5075151;28;19999;-41
2022/11/06 05:20:04;;;;;;;;;;;15.50;93.20;;;;;;5075148;28;19911;-41
2022/11/06 05:25:28;;;;;;;;;;;15.60;93.20;;;;;;5019550;28;19927;-41
2022/11/06 05:27:53;;;;;;;;;;;15.60;93.20;;;;;;5074885;28;19904;-41
2022/11/06 05:30:19;;;;;;;;;;;15.60;93.20;;;;;;5074976;28;19916;-41
2022/11/06 05:32:44;;;;;;;;;;;15.60;93.20;;;;;;5074730;28;19904;-44
2022/11/06 05:35:10;;;;;;;;;;;15.60;93.20;;;;;;5074781;28;19905;-44
2022/11/06 05:37:35;;;;;;;;;;;15.50;93.20;;;;;;5074571;28;20347;-42
2022/11/06 05:40:01;;;;;;;;;;;15.50;93.30;;;;;;5074824;28;19995;-44
2022/11/06 05:42:26;;;;;;;;;;;15.50;93.30;;;;;;5074447;28;19905;-41
2022/11/06 05:44:52;;;;;;;;;;;15.50;93.30;;;;;;5073444;28;19983;-42
2022/11/06 05:47:17;;;;;;;;;;;15.50;93.30;;;;;;5074732;28;19905;-43
2022/11/06 05:49:43;;;;;;;;;;;15.50;93.30;;;;;;5074179;28;19960;-41
2022/11/06 05:52:08;;;;;;;;;;;15.50;93.30;;;;;;5074125;28;19958;-42
2022/11/06 05:54:34;;;;;;;;;;;15.50;93.30;;;;;;5074551;28;19950;-41
2022/11/06 05:56:59;;;;;;;;;;;15.50;93.40;;;;;;5074835;28;20319;-42
2022/11/06 05:59:25;;;;;;;;;;;15.50;93.30;;;;;;5074057;28;19905;-43
2022/11/06 06:01:50;;;;;;;;;;;15.50;93.30;;;;;;5074178;28;20007;-42
2022/11/06 06:04:16;;;;;;;;;;;15.50;93.30;;;;;;5074337;28;19904;-42
2022/11/06 06:06:41;;;;;;;;;;;15.50;93.30;;;;;;5073939;28;19904;-43
2022/11/06 06:09:07;;;;;;;;;;;15.50;93.30;;;;;;5072365;28;19916;-43
2022/11/06 06:11:32;;;;;;;;;;;15.50;93.30;;;;;;5073902;28;19909;-42
2022/11/06 06:13:58;;;;;;;;;;;15.50;93.30;;;;;;5073911;28;19998;-42
2022/11/06 06:16:24;;;;;;;;;;;15.50;93.40;;;;;;5073908;28;20041;-41
2022/11/06 06:18:52;;;;;;;;;;;15.40;93.40;;;;;;5073815;28;19912;-41
2022/11/06 06:21:17;;;;;;;;;;;15.40;93.40;;;;;;5074081;28;19905;-42
2022/11/06 06:23:43;;;;;;;;;;;15.40;93.30;;;;;;5073788;28;19920;-42
2022/11/06 06:26:08;;;;;;;;;;;15.40;93.40;;;;;;5073654;28;19912;-41
2022/11/06 06:28:34;;;;;;;;;;;15.40;93.40;;;;;;5073682;28;20259;-42
2022/11/06 06:31:02;;;;;;;;;;;15.40;93.40;;;;;;5073937;28;19939;-41
2022/11/06 06:33:28;;;;;;;;;;;15.40;93.40;;;;;;5073711;28;19904;-42
2022/11/06 06:35:53;;;;;;;;;;;15.40;93.40;;;;;;5073976;28;19911;-42
2022/11/06 06:38:19;;;;;;;;;;;15.40;93.40;;;;;;5073654;28;19905;-42
2022/11/06 06:40:44;;;;;;;;;;;15.40;93.40;;;;;;5073988;28;19904;-41
2022/11/06 06:43:10;;;;;;;;;;;15.40;93.40;;;;;;5073866;28;19904;-41
2022/11/06 06:45:35;;;;;;;;;;;15.40;93.40;;;;;;5073862;28;19904;-41
2022/11/06 06:48:04;;;;;;;;;;;15.40;93.40;;;;;;5073850;28;19904;-43
2022/11/06 06:50:30;;;;;;;;;;;15.40;93.40;;;;;;5074094;28;19916;-41
2022/11/06 06:52:56;;;;;;;;;;;15.40;93.50;;;;;;5073841;28;19927;-41
2022/11/06 06:55:21;;;;;;;;;;;15.40;93.40;;;;;;5073571;28;19944;-42
2022/11/06 06:57:47;;;;;;;;;;;15.40;93.40;;;;;;5073798;28;19912;-41
2022/11/06 07:00:12;;;;;;;;;;;15.40;93.40;;;;;;5073353;28;19905;-43
2022/11/06 07:02:38;;;;;;;;;;;15.40;93.50;;;;;;5073379;28;20262;-42
2022/11/06 07:05:03;;;;;;;;;;;15.40;93.50;;;;;;5073379;28;19966;-42
2022/11/06 07:07:29;;;;;;;;;;;15.30;93.50;;;;;;5073302;28;19955;-43
2022/11/06 07:09:54;;;;;;;;;;;15.40;93.50;;;;;;5073552;28;19956;-44
2022/11/06 07:12:20;;;;;;;;;;;15.30;93.50;;;;;;5072868;28;20343;-44
2022/11/06 07:14:45;;;;;;;;;;;15.30;93.50;;;;;;5068076;28;19916;-42
2022/11/06 07:17:11;;;;;;;;;;;15.40;93.50;;;;;;5072975;28;19919;-43
2022/11/06 07:19:36;;;;;;;;;;;15.30;93.50;;;;;;5082430;28;19936;-42
2022/11/06 07:22:02;;;;;;;;;;;15.40;93.50;;;;;;5097131;28;20010;-42
2022/11/06 07:24:27;;;;;;;;;;;15.30;93.50;;;;;;5097807;28;19915;-43
2022/11/06 07:26:53;;;;;;;;;;;15.30;93.50;;;;;;5097407;28;20015;-42
2022/11/06 07:29:18;;;;;;;;;;;15.30;93.60;;;;;;5096985;28;19993;-43
2022/11/06 07:31:44;;;;;;;;;;;15.30;93.50;;;;;;5097354;28;19958;-42
2022/11/06 07:34:09;;;;;;;;;;;15.30;93.60;;;;;;5097326;28;20329;-43
2022/11/06 07:36:35;;;;;;;;;;;15.30;93.60;;;;;;5097180;28;19955;-42
2022/11/06 07:39:00;;;;;;;;;;;15.30;93.60;;;;;;5096784;28;20361;-42
2022/11/06 07:41:25;;;;;;;;;;;15.30;93.60;;;;;;5083158;28;19940;-41
2022/11/06 07:43:51;;;;;;;;;;;15.30;93.60;;;;;;5096855;28;19908;-41
2022/11/06 07:46:16;;;;;;;;;;;15.30;93.60;;;;;;5088663;28;19912;-44
2022/11/06 07:48:42;;;;;;;;;;;15.30;93.60;;;;;;5091172;28;19912;-43
2022/11/06 07:51:09;;;;;;;;;;;15.30;93.90;;;;;;5095110;28;19916;-42
2022/11/06 07:53:35;;;;;;;;;;;15.30;93.70;;;;;;5087476;28;19918;-43
2022/11/06 07:56:00;;;;;;;;;;;15.30;93.70;;;;;;5095246;28;19908;-43
2022/11/06 07:58:26;;;;;;;;;;;15.30;93.70;;;;;;5091816;28;19913;-43
2022/11/06 08:00:53;;;;;;;;;;;15.30;93.70;;;;;;5081805;28;20034;-43
2022/11/06 08:03:19;;;;;;;;;;;15.30;93.70;;;;;;5084677;28;19909;-44
2022/11/06 08:05:45;;;;;;;;;;;15.30;93.70;;;;;;5092771;28;20377;-42
2022/11/06 08:08:10;;;;;;;;;;;15.30;93.70;;;;;;5096776;28;19969;-42
2022/11/06 08:10:39;;;;;;;;;;;15.30;93.80;;;;;;5096318;28;19912;-42
2022/11/06 08:13:14;;;;;;;;;;;15.30;93.80;;;;;;5096170;28;20315;-42
2022/11/06 08:15:40;;;;;;;;;;;15.40;93.80;;;;;;5096819;28;19999;-42
2022/11/06 08:18:07;;;;;;;;;;;15.30;93.70;;;;;;5094346;28;19958;-42
2022/11/06 08:20:33;;;;;;;;;;;15.30;93.70;;;;;;5084573;28;20007;-42
2022/11/06 08:22:59;;;;;;;;;;;15.30;93.80;;;;;;5096133;28;19912;-46
2022/11/06 08:25:24;;;;;;;;;;;15.30;93.80;;;;;;5086621;28;20018;-41
2022/11/06 08:27:53;;;;;;;;;;;15.30;93.80;;;;;;5111280;28;19912;-41
2022/11/06 08:30:18;;;;;;;;;;;15.30;93.80;;;;;;5096511;28;19927;-42
2022/11/06 08:32:43;;;;;;;;;;;15.30;93.90;;;;;;5099434;28;19912;-41
2022/11/06 08:35:09;;;;;;;;;;;15.30;93.90;;;;;;5113235;28;19908;-42
2022/11/06 08:37:35;;;;;;;;;;;15.30;93.80;;;;;;5086594;28;19966;-43
2022/11/06 08:40:00;;;;;;;;;;;15.40;93.80;;;;;;5090564;28;19962;-43
2022/11/06 08:42:26;;;;;;;;;;;15.40;93.80;;;;;;5096039;28;20339;-43
2022/11/06 08:44:52;;;;;;;;;;;15.40;93.80;;;;;;5095866;28;20468;-43
2022/11/06 08:47:17;;;;;;;;;;;15.40;93.80;;;;;;5095381;28;19948;-43
2022/11/06 08:49:43;;;;;;;;;;;15.40;93.80;;;;;;5095480;28;19922;-44
2022/11/06 08:52:08;;;;;;;;;;;15.30;93.70;;;;;;5095852;28;19982;-42
2022/11/06 08:54:33;;;;;;;;;;;15.40;93.70;;;;;;5095578;28;19908;-42
2022/11/06 08:56:59;;;;;;;;;;;15.30;93.70;;;;;;5095489;28;20287;-43
2022/11/06 08:59:24;;;;;;;;;;;15.40;93.70;;;;;;5095672;28;20003;-44
2022/11/06 09:01:50;;;;;;;;;;;15.40;93.70;;;;;;5099436;28;19912;-42
2022/11/06 09:04:15;;;;;;;;;;;15.40;93.70;;;;;;5086751;28;19997;-43
2022/11/06 09:06:41;;;;;;;;;;;15.40;93.70;;;;;;5077509;28;20351;-42
2022/11/06 09:09:06;;;;;;;;;;;15.40;93.60;;;;;;5089438;28;19963;-47
2022/11/06 09:11:32;;;;;;;;;;;15.40;93.60;;;;;;5085410;28;19920;-43
2022/11/06 09:13:57;;;;;;;;;;;15.40;93.60;;;;;;5093619;28;20396;-42
2022/11/06 09:16:25;;;;;;;;;;;15.40;93.60;;;;;;5093723;28;19916;-43
2022/11/06 09:18:52;;;;;;;;;;;15.30;93.60;;;;;;5093660;28;19915;-42
2022/11/06 09:21:18;;;;;;;;;;;15.30;93.60;;;;;;5075532;28;19916;-43
2022/11/06 09:23:44;;;;;;;;;;;15.40;93.60;;;;;;5093574;28;19915;-44
2022/11/06 09:26:10;;;;;;;;;;;15.40;93.50;;;;;;5093853;28;19908;-43
2022/11/06 09:28:35;;;;;;;;;;;15.40;93.60;;;;;;5093843;28;20322;-43
2022/11/06 09:31:01;;;;;;;;;;;15.40;93.50;;;;;;5093201;28;19963;-42
2022/11/06 09:33:27;;;;;;;;;;;15.40;93.50;;;;;;5093398;28;20370;-45
2022/11/06 09:35:52;;;;;;;;;;;15.40;93.50;;;;;;5093336;28;19912;-43
2022/11/06 09:38:18;;;;;;;;;;;15.40;93.50;;;;;;5093091;28;19955;-42
2022/11/06 09:40:52;;;;;;;;;;;15.40;93.50;;;;;;5075522;28;19952;-43
2022/11/06 09:43:37;;;;;;;;;;;15.30;93.50;;;;;;5094096;28;19965;-43
2022/11/06 09:46:10;;;;;;;;;;;15.30;93.50;;;;;;5097452;28;19916;-43
2022/11/06 09:48:44;;;;;;;;;;;15.30;93.50;;;;;;5086491;28;19947;-43
2022/11/06 09:51:19;;;;;;;;;;;15.40;93.40;;;;;;5090686;28;19934;-43
2022/11/06 09:53:47;;;;;;;;;;;15.50;93.40;;;;;;5076093;28;19919;-45
2022/11/06 09:56:13;;;;;;;;;;;15.60;93.40;;;;;;5094051;28;19912;-43
2022/11/06 09:58:41;;;;;;;;;;;15.60;93.40;;;;;;5094761;28;19912;-45
2022/11/06 10:01:15;;;;;;;;;;;15.70;93.30;;;;;;5094500;28;20404;-42
2022/11/06 10:03:53;;;;;;;;;;;15.80;93.20;;;;;;5094334;28;19928;-43
2022/11/06 10:06:20;;;;;;;;;;;15.90;93.10;;;;;;5093883;28;20008;-42
2022/11/06 10:08:45;;;;;;;;;;;16.10;93.10;;;;;;5091953;28;20077;-44
2022/11/06 10:11:12;;;;;;;;;;;16.30;92.60;;;;;;5113923;28;20396;-43
2022/11/06 10:13:41;;;;;;;;;;;16.50;92.40;;;;;;5102933;28;19956;-42
2022/11/06 10:16:06;;;;;;;;;;;16.60;92.10;;;;;;5093829;28;19995;-44
2022/11/06 10:18:35;;;;;;;;;;;16.80;92.00;;;;;;5093997;28;19962;-42
2022/11/06 10:21:29;;;;;;;;;;;16.90;91.80;;;;;;5094103;28;20366;-44
2022/11/06 10:23:56;;;;;;;;;;;17.00;91.70;;;;;;5069692;28;20277;-42
2022/11/06 10:26:25;;;;;;;;;;;17.00;91.50;;;;;;5106648;28;20532;-43
2022/11/06 10:28:50;;;;;;;;;;;17.10;91.40;;;;;;5093693;28;19908;-43
2022/11/06 10:31:34;;;;;;;;;;;17.10;91.30;;;;;;5093677;28;19977;-47
2022/11/06 10:34:07;;;;;;;;;;;17.10;91.20;;;;;;5093809;28;19908;-42
2022/11/06 10:36:41;;;;;;;;;;;17.10;91.20;;;;;;5093598;28;19919;-43
2022/11/06 10:39:19;;;;;;;;;;;17.10;91.20;;;;;;5094002;28;19935;-42
2022/11/06 10:41:48;;;;;;;;;;;17.10;91.20;;;;;;5093580;28;20012;-43
2022/11/06 10:44:35;;;;;;;;;;;17.10;91.20;;;;;;5094044;28;19920;-44
2022/11/06 10:47:08;;;;;;;;;;;17.10;91.20;;;;;;5096266;28;19912;-44
2022/11/06 10:49:37;;;;;;;;;;;17.10;91.20;;;;;;5103468;28;20354;-42
2022/11/06 10:52:05;;;;;;;;;;;17.10;91.20;;;;;;5106773;28;19915;-43
2022/11/06 10:54:38;;;;;;;;;;;17.10;91.20;;;;;;5105937;28;19911;-43
2022/11/06 10:57:10;;;;;;;;;;;17.10;91.30;;;;;;5100424;28;19955;-42
2022/11/06 10:59:35;;;;;;;;;;;17.00;91.30;;;;;;5092724;28;20378;-42
2022/11/06 11:02:01;;;;;;;;;;;17.00;91.30;;;;;;5088945;28;19908;-43
2022/11/06 11:04:27;;;;;;;;;;;17.00;91.30;;;;;;5097876;28;19915;-42
2022/11/06 11:06:52;;;;;;;;;;;16.90;91.30;;;;;;5097376;28;19920;-43
2022/11/06 11:09:29;;;;;;;;;;;17.00;91.40;;;;;;5079286;28;19923;-42
2022/11/06 11:11:54;;;;;;;;;;;16.90;91.40;;;;;;5097522;28;19915;-43
2022/11/06 11:14:30;;;;;;;;;;;16.90;91.50;;;;;;5095736;28;20389;-43
2022/11/06 11:16:58;;;;;;;;;;;16.90;91.50;;;;;;5094743;28;19964;-43
2022/11/06 11:19:25;;;;;;;;;;;16.90;91.60;;;;;;5086491;28;19908;-47
2022/11/06 11:21:52;;;;;;;;;;;16.90;91.60;;;;;;5092524;28;20392;-42
2022/11/06 11:24:18;;;;;;;;;;;16.90;91.70;;;;;;5097585;28;20385;-43
2022/11/06 11:26:45;;;;;;;;;;;16.80;91.70;;;;;;5086855;28;19913;-44
2022/11/06 11:29:22;;;;;;;;;;;16.90;91.80;;;;;;5094521;28;19947;-45
2022/11/06 11:31:52;;;;;;;;;;;16.90;91.70;;;;;;5090378;28;19995;-43
2022/11/06 11:34:19;;;;;;;;;;;16.90;91.70;;;;;;5097035;28;20375;-42
2022/11/06 11:36:50;;;;;;;;;;;17.10;91.70;;;;;;5067503;28;20339;-43
2022/11/06 11:39:16;;;;;;;;;;;17.10;91.70;;;;;;5097397;28;20321;-41
2022/11/06 11:41:41;;;;;;;;;;;17.10;91.60;;;;;;5097689;28;20243;-43
2022/11/06 11:44:10;;;;;;;;;;;17.20;91.50;;;;;;5108377;28;20041;-44
2022/11/06 11:46:43;;;;;;;;;;;17.20;91.50;;;;;;5108199;28;19908;-41
2022/11/06 11:49:23;;;;;;;;;;;17.20;91.50;;;;;;5099589;28;19908;-42
2022/11/06 11:51:49;;;;;;;;;;;17.30;91.50;;;;;;5090771;28;19904;-41
2022/11/06 11:54:19;;;;;;;;;;;17.30;91.30;;;;;;5109712;28;19956;-43
2022/11/06 11:56:49;;;;;;;;;;;17.30;91.20;;;;;;5094039;28;19920;-42
2022/11/06 11:59:19;;;;;;;;;;;17.30;91.30;;;;;;5093626;28;19916;-42
2022/11/06 12:01:46;;;;;;;;;;;17.20;91.30;;;;;;5058452;28;19936;-43
2022/11/06 12:04:26;;;;;;;;;;;17.20;91.30;;;;;;5076161;28;19908;-42
2022/11/06 12:06:56;;;;;;;;;;;17.20;91.30;;;;;;5075030;28;20444;-42
2022/11/06 12:09:22;;;;;;;;;;;17.20;91.40;;;;;;5076330;28;19917;-42
2022/11/06 12:11:48;;;;;;;;;;;17.20;91.40;;;;;;5076359;28;19962;-43
2022/11/06 12:14:27;;;;;;;;;;;17.20;91.40;;;;;;5075929;28;19909;-43
2022/11/06 12:17:04;;;;;;;;;;;17.20;91.40;;;;;;5076119;28;19912;-43
2022/11/06 12:19:31;;;;;;;;;;;17.20;91.40;;;;;;5076486;28;19940;-42
2022/11/06 12:21:58;;;;;;;;;;;17.10;91.40;;;;;;5076142;28;19908;-42
2022/11/06 12:24:39;;;;;;;;;;;17.10;91.40;;;;;;5075896;28;19908;-44
2022/11/06 12:27:14;;;;;;;;;;;17.10;91.50;;;;;;5075764;28;19908;-43
2022/11/06 12:29:45;;;;;;;;;;;17.10;91.50;;;;;;5075622;28;19916;-42
2022/11/06 12:32:26;;;;;;;;;;;17.10;91.50;;;;;;5075916;28;19913;-43
2022/11/06 12:35:00;;;;;;;;;;;17.10;91.50;;;;;;5075957;28;19959;-43
2022/11/06 12:37:44;;;;;;;;;;;17.00;91.50;;;;;;5075547;28;20363;-42
2022/11/06 12:40:17;;;;;;;;;;;17.00;91.50;;;;;;5075710;28;19909;-41
2022/11/06 12:42:48;;;;;;;;;;;17.00;91.50;;;;;;5075525;28;19913;-42
2022/11/06 12:45:13;;;;;;;;;;;17.00;91.50;;;;;;5074247;28;19912;-43
2022/11/06 12:47:39;;;;;;;;;;;17.00;91.50;;;;;;5075202;28;19978;-43
2022/11/06 12:50:11;;;;;;;;;;;17.00;91.50;;;;;;5075530;28;19923;-45
2022/11/06 12:52:36;;;;;;;;;;;16.90;91.50;;;;;;5075567;28;19915;-43
2022/11/06 12:55:02;;;;;;;;;;;16.90;91.50;;;;;;5075006;28;19912;-44
2022/11/06 12:57:36;;;;;;;;;;;16.90;91.50;;;;;;5075147;28;19909;-43
2022/11/06 13:00:08;;;;;;;;;;;17.00;91.50;;;;;;5075222;28;19916;-43
2022/11/06 13:02:34;;;;;;;;;;;16.90;91.50;;;;;;5075359;28;19908;-44
2022/11/06 13:05:08;;;;;;;;;;;17.00;91.50;;;;;;5089726;28;19989;-46
2022/11/06 13:07:45;;;;;;;;;;;17.00;91.50;;;;;;5088916;28;20360;-44
2022/11/06 13:10:11;;;;;;;;;;;17.10;91.40;;;;;;5082103;28;19928;-44
2022/11/06 13:12:36;;;;;;;;;;;17.10;91.30;;;;;;5095296;28;19909;-42
2022/11/06 13:15:22;;;;;;;;;;;17.10;91.30;;;;;;5094973;28;19958;-44
2022/11/06 13:17:51;;;;;;;;;;;17.10;91.20;;;;;;5074208;28;19919;-43
2022/11/06 13:20:26;;;;;;;;;;;17.20;91.10;;;;;;5092331;28;19912;-45
2022/11/06 13:22:59;;;;;;;;;;;17.20;91.20;;;;;;5093296;28;20427;-44
2022/11/06 13:25:27;;;;;;;;;;;17.30;91.20;;;;;;5095175;28;19908;-43
2022/11/06 13:28:01;;;;;;;;;;;17.30;91.20;;;;;;5093147;28;19923;-42
2022/11/06 13:30:27;;;;;;;;;;;17.30;91.20;;;;;;5094825;28;19924;-43
2022/11/06 13:32:59;;;;;;;;;;;17.20;91.20;;;;;;5096078;28;19918;-47
2022/11/06 13:35:25;;;;;;;;;;;17.20;91.20;;;;;;5090761;28;19935;-44
2022/11/06 13:37:51;;;;;;;;;;;17.20;91.20;;;;;;5111508;28;20359;-45
2022/11/06 13:40:32;;;;;;;;;;;17.30;91.30;;;;;;5094490;28;19911;-44
2022/11/06 13:43:12;;;;;;;;;;;17.30;91.30;;;;;;5088264;28;19909;-42
2022/11/06 13:45:49;;;;;;;;;;;17.20;91.40;;;;;;5089374;28;19970;-42
2022/11/06 13:48:35;;;;;;;;;;;17.20;91.40;;;;;;5094170;28;19912;-42
2022/11/06 13:51:07;;;;;;;;;;;17.20;91.40;;;;;;5093981;28;19920;-44
2022/11/06 13:53:39;;;;;;;;;;;17.20;91.50;;;;;;5094346;28;20002;-42
2022/11/06 13:56:08;;;;;;;;;;;17.20;91.50;;;;;;5094240;28;19926;-43
2022/11/06 13:58:45;;;;;;;;;;;17.10;91.60;;;;;;5094383;28;19944;-44
2022/11/06 14:01:33;;;;;;;;;;;17.10;91.60;;;;;;5094290;28;20003;-42
2022/11/06 14:03:59;;;;;;;;;;;17.10;91.60;;;;;;5094399;28;20307;-43
2022/11/06 14:06:26;;;;;;;;;;;17.10;91.60;;;;;;5094496;28;19947;-42
2022/11/06 14:08:52;;;;;;;;;;;17.00;91.60;;;;;;5094528;28;19959;-43
2022/11/06 14:11:25;;;;;;;;;;;17.10;91.70;;;;;;5094210;28;19948;-46
2022/11/06 14:13:55;;;;;;;;;;;17.00;91.70;;;;;;5100659;28;20358;-44
2022/11/06 14:16:21;;;;;;;;;;;17.00;91.70;;;;;;5092634;28;19959;-44
2022/11/06 14:19:12;;;;;;;;;;;17.00;91.70;;;;;;5095837;28;19955;-43
2022/11/06 14:21:38;;;;;;;;;;;16.90;91.70;;;;;;5080561;28;20294;-44
2022/11/06 14:24:13;;;;;;;;;;;16.90;91.60;;;;;;5080392;28;19913;-42
2022/11/06 14:26:41;;;;;;;;;;;16.90;91.70;;;;;;5077688;28;19914;-43
2022/11/06 14:29:25;;;;;;;;;;;16.90;91.80;;;;;;5071285;28;19984;-44
2022/11/06 14:31:57;;;;;;;;;;;16.80;91.80;;;;;;5079996;28;19912;-43
2022/11/06 14:34:29;;;;;;;;;;;16.80;91.80;;;;;;5093715;28;20007;-42
2022/11/06 14:36:55;;;;;;;;;;;16.80;91.80;;;;;;5094294;28;19908;-42
2022/11/06 14:39:39;;;;;;;;;;;16.80;91.90;;;;;;5092430;28;20332;-42